sensor_id;sensor_type;location;lat;lon;timestamp;P1;durP1;ratioP1;P2;durP2;ratioP2
76310;SDS011;65120;59.304;18.294;2023-09-19T00:00:55;5.55;;;1.98;;
76310;SDS011;65120;59.304;18.294;2023-09-19T00:03:22;5.68;;;2.30;;
76310;SDS011;65120;59.304;18.294;2023-09-19T00:05:51;8.55;;;2.80;;
76310;SDS011;65120;59.304;18.294;2023-09-19T00:08:18;8.20;;;2.40;;
76310;SDS011;65120;59.304;18.294;2023-09-19T00:10:49;11.43;;;3.50;;
76310;SDS011;65120;59.304;18.294;2023-09-19T00:13:18;14.52;;;3.30;;
76310;SDS011;65120;59.304;18.294;2023-09-19T00:15:46;8.95;;;3.50;;
76310;SDS011;65120;59.304;18.294;2023-09-19T00:18:15;7.47;;;2.95;;
76310;SDS011;65120;59.304;18.294;2023-09-19T00:20:42;6.07;;;3.00;;
76310;SDS011;65120;59.304;18.294;2023-09-19T00:23:14;12.27;;;3.95;;
76310;SDS011;65120;59.304;18.294;2023-09-19T00:25:41;10.85;;;3.55;;
76310;SDS011;65120;59.304;18.294;2023-09-19T00:28:07;11.02;;;3.92;;
76310;SDS011;65120;59.304;18.294;2023-09-19T00:30:35;11.40;;;3.65;;
76310;SDS011;65120;59.304;18.294;2023-09-19T00:33:03;11.63;;;4.10;;
76310;SDS011;65120;59.304;18.294;2023-09-19T00:35:32;8.77;;;4.05;;
76310;SDS011;65120;59.304;18.294;2023-09-19T00:37:59;6.47;;;4.28;;
76310;SDS011;65120;59.304;18.294;2023-09-19T00:40:28;8.38;;;2.78;;
76310;SDS011;65120;59.304;18.294;2023-09-19T00:42:57;10.20;;;4.50;;
76310;SDS011;65120;59.304;18.294;2023-09-19T00:45:25;5.32;;;3.20;;
76310;SDS011;65120;59.304;18.294;2023-09-19T00:47:53;13.98;;;4.18;;
76310;SDS011;65120;59.304;18.294;2023-09-19T00:50:21;9.23;;;4.22;;
76310;SDS011;65120;59.304;18.294;2023-09-19T00:52:53;7.90;;;3.55;;
76310;SDS011;65120;59.304;18.294;2023-09-19T00:55:22;7.22;;;3.33;;
76310;SDS011;65120;59.304;18.294;2023-09-19T00:57:52;15.25;;;3.88;;
76310;SDS011;65120;59.304;18.294;2023-09-19T01:00:19;9.43;;;4.38;;
76310;SDS011;65120;59.304;18.294;2023-09-19T01:02:46;15.77;;;4.57;;
76310;SDS011;65120;59.304;18.294;2023-09-19T01:05:13;9.07;;;3.80;;
76310;SDS011;65120;59.304;18.294;2023-09-19T01:07:41;11.15;;;3.85;;
76310;SDS011;65120;59.304;18.294;2023-09-19T01:10:10;8.82;;;3.55;;
76310;SDS011;65120;59.304;18.294;2023-09-19T01:12:45;8.75;;;3.92;;
76310;SDS011;65120;59.304;18.294;2023-09-19T01:15:21;12.63;;;3.85;;
76310;SDS011;65120;59.304;18.294;2023-09-19T01:17:57;11.23;;;3.75;;
76310;SDS011;65120;59.304;18.294;2023-09-19T01:20:30;7.57;;;3.42;;
76310;SDS011;65120;59.304;18.294;2023-09-19T01:23:10;11.50;;;3.50;;
76310;SDS011;65120;59.304;18.294;2023-09-19T01:25:50;12.20;;;4.55;;
76310;SDS011;65120;59.304;18.294;2023-09-19T01:28:34;13.35;;;4.10;;
76310;SDS011;65120;59.304;18.294;2023-09-19T01:31:13;9.30;;;5.03;;
76310;SDS011;65120;59.304;18.294;2023-09-19T01:33:57;11.60;;;4.85;;
76310;SDS011;65120;59.304;18.294;2023-09-19T01:36:29;10.98;;;4.45;;
76310;SDS011;65120;59.304;18.294;2023-09-19T01:38:59;10.73;;;5.20;;
76310;SDS011;65120;59.304;18.294;2023-09-19T01:41:34;9.43;;;5.03;;
76310;SDS011;65120;59.304;18.294;2023-09-19T01:44:13;10.95;;;5.15;;
76310;SDS011;65120;59.304;18.294;2023-09-19T01:46:46;12.43;;;4.30;;
76310;SDS011;65120;59.304;18.294;2023-09-19T01:49:17;12.75;;;5.47;;
76310;SDS011;65120;59.304;18.294;2023-09-19T01:51:53;8.93;;;5.60;;
76310;SDS011;65120;59.304;18.294;2023-09-19T01:54:30;7.32;;;4.65;;
76310;SDS011;65120;59.304;18.294;2023-09-19T01:59:34;9.77;;;5.18;;
76310;SDS011;65120;59.304;18.294;2023-09-19T02:02:09;14.77;;;4.50;;
76310;SDS011;65120;59.304;18.294;2023-09-19T02:04:37;10.27;;;4.93;;
76310;SDS011;65120;59.304;18.294;2023-09-19T02:07:04;15.20;;;5.18;;
76310;SDS011;65120;59.304;18.294;2023-09-19T02:09:33;11.70;;;5.70;;
76310;SDS011;65120;59.304;18.294;2023-09-19T02:12:04;12.50;;;6.50;;
76310;SDS011;65120;59.304;18.294;2023-09-19T02:14:32;12.90;;;5.78;;
76310;SDS011;65120;59.304;18.294;2023-09-19T02:16:59;15.75;;;6.00;;
76310;SDS011;65120;59.304;18.294;2023-09-19T02:19:27;10.27;;;5.43;;
76310;SDS011;65120;59.304;18.294;2023-09-19T02:21:55;16.23;;;6.10;;
76310;SDS011;65120;59.304;18.294;2023-09-19T02:24:22;15.27;;;5.68;;
76310;SDS011;65120;59.304;18.294;2023-09-19T02:26:52;15.65;;;6.13;;
76310;SDS011;65120;59.304;18.294;2023-09-19T02:29:19;14.77;;;6.43;;
76310;SDS011;65120;59.304;18.294;2023-09-19T02:31:47;17.58;;;6.32;;
76310;SDS011;65120;59.304;18.294;2023-09-19T02:34:14;11.50;;;5.63;;
76310;SDS011;65120;59.304;18.294;2023-09-19T02:36:43;11.13;;;6.25;;
76310;SDS011;65120;59.304;18.294;2023-09-19T02:39:11;16.55;;;6.13;;
76310;SDS011;65120;59.304;18.294;2023-09-19T02:41:38;16.05;;;6.88;;
76310;SDS011;65120;59.304;18.294;2023-09-19T02:44:06;15.25;;;6.20;;
76310;SDS011;65120;59.304;18.294;2023-09-19T02:46:33;15.60;;;6.85;;
76310;SDS011;65120;59.304;18.294;2023-09-19T02:49:02;17.70;;;7.35;;
76310;SDS011;65120;59.304;18.294;2023-09-19T02:51:30;18.17;;;6.63;;
76310;SDS011;65120;59.304;18.294;2023-09-19T02:53:59;12.80;;;7.57;;
76310;SDS011;65120;59.304;18.294;2023-09-19T02:56:28;10.80;;;6.82;;
76310;SDS011;65120;59.304;18.294;2023-09-19T02:58:55;12.95;;;7.03;;
76310;SDS011;65120;59.304;18.294;2023-09-19T03:01:23;18.80;;;6.82;;
76310;SDS011;65120;59.304;18.294;2023-09-19T03:03:50;15.32;;;7.57;;
76310;SDS011;65120;59.304;18.294;2023-09-19T03:06:17;16.13;;;7.43;;
76310;SDS011;65120;59.304;18.294;2023-09-19T03:08:45;17.48;;;8.25;;
76310;SDS011;65120;59.304;18.294;2023-09-19T03:11:15;15.55;;;7.10;;
76310;SDS011;65120;59.304;18.294;2023-09-19T03:13:50;13.27;;;7.32;;
76310;SDS011;65120;59.304;18.294;2023-09-19T03:16:17;13.27;;;7.60;;
76310;SDS011;65120;59.304;18.294;2023-09-19T03:18:46;16.42;;;8.57;;
76310;SDS011;65120;59.304;18.294;2023-09-19T03:21:14;14.02;;;8.05;;
76310;SDS011;65120;59.304;18.294;2023-09-19T03:23:42;15.35;;;8.52;;
76310;SDS011;65120;59.304;18.294;2023-09-19T03:26:10;16.13;;;8.60;;
76310;SDS011;65120;59.304;18.294;2023-09-19T03:28:40;14.98;;;8.73;;
76310;SDS011;65120;59.304;18.294;2023-09-19T03:31:08;16.67;;;9.60;;
76310;SDS011;65120;59.304;18.294;2023-09-19T03:33:36;15.52;;;8.35;;
76310;SDS011;65120;59.304;18.294;2023-09-19T03:36:03;13.60;;;7.85;;
76310;SDS011;65120;59.304;18.294;2023-09-19T03:38:31;18.75;;;8.55;;
76310;SDS011;65120;59.304;18.294;2023-09-19T03:40:59;15.40;;;8.70;;
76310;SDS011;65120;59.304;18.294;2023-09-19T03:43:26;13.88;;;8.40;;
76310;SDS011;65120;59.304;18.294;2023-09-19T03:45:55;16.98;;;7.95;;
76310;SDS011;65120;59.304;18.294;2023-09-19T03:48:22;21.40;;;9.15;;
76310;SDS011;65120;59.304;18.294;2023-09-19T03:50:49;20.52;;;8.43;;
76310;SDS011;65120;59.304;18.294;2023-09-19T03:53:17;17.63;;;8.80;;
76310;SDS011;65120;59.304;18.294;2023-09-19T03:55:44;19.73;;;8.70;;
76310;SDS011;65120;59.304;18.294;2023-09-19T03:58:12;17.75;;;9.57;;
76310;SDS011;65120;59.304;18.294;2023-09-19T04:00:39;18.92;;;9.90;;
76310;SDS011;65120;59.304;18.294;2023-09-19T04:03:07;18.98;;;8.73;;
76310;SDS011;65120;59.304;18.294;2023-09-19T04:05:36;14.10;;;8.70;;
76310;SDS011;65120;59.304;18.294;2023-09-19T04:08:03;14.48;;;8.98;;
76310;SDS011;65120;59.304;18.294;2023-09-19T04:10:30;19.77;;;10.32;;
76310;SDS011;65120;59.304;18.294;2023-09-19T04:12:57;20.58;;;8.70;;
76310;SDS011;65120;59.304;18.294;2023-09-19T04:15:24;17.52;;;10.52;;
76310;SDS011;65120;59.304;18.294;2023-09-19T04:17:52;17.48;;;9.48;;
76310;SDS011;65120;59.304;18.294;2023-09-19T04:20:20;18.60;;;11.07;;
76310;SDS011;65120;59.304;18.294;2023-09-19T04:22:48;18.88;;;8.85;;
76310;SDS011;65120;59.304;18.294;2023-09-19T04:25:15;16.60;;;9.63;;
76310;SDS011;65120;59.304;18.294;2023-09-19T04:27:43;22.33;;;9.77;;
76310;SDS011;65120;59.304;18.294;2023-09-19T04:30:11;16.35;;;10.40;;
76310;SDS011;65120;59.304;18.294;2023-09-19T04:32:39;17.95;;;9.35;;
76310;SDS011;65120;59.304;18.294;2023-09-19T04:35:07;17.63;;;10.02;;
76310;SDS011;65120;59.304;18.294;2023-09-19T04:37:37;19.85;;;10.80;;
76310;SDS011;65120;59.304;18.294;2023-09-19T04:40:07;19.27;;;10.35;;
76310;SDS011;65120;59.304;18.294;2023-09-19T04:42:38;16.58;;;9.45;;
76310;SDS011;65120;59.304;18.294;2023-09-19T04:45:06;17.05;;;10.07;;
76310;SDS011;65120;59.304;18.294;2023-09-19T04:47:35;14.88;;;9.70;;
76310;SDS011;65120;59.304;18.294;2023-09-19T04:50:04;24.73;;;10.90;;
76310;SDS011;65120;59.304;18.294;2023-09-19T04:52:33;21.40;;;10.85;;
76310;SDS011;65120;59.304;18.294;2023-09-19T04:55:01;16.02;;;10.15;;
76310;SDS011;65120;59.304;18.294;2023-09-19T04:57:28;20.08;;;10.60;;
76310;SDS011;65120;59.304;18.294;2023-09-19T04:59:56;14.90;;;9.85;;
76310;SDS011;65120;59.304;18.294;2023-09-19T05:02:23;15.27;;;9.93;;
76310;SDS011;65120;59.304;18.294;2023-09-19T05:04:50;19.25;;;10.05;;
76310;SDS011;65120;59.304;18.294;2023-09-19T05:07:18;19.88;;;11.02;;
76310;SDS011;65120;59.304;18.294;2023-09-19T05:09:47;21.73;;;11.60;;
76310;SDS011;65120;59.304;18.294;2023-09-19T05:12:16;20.42;;;11.45;;
76310;SDS011;65120;59.304;18.294;2023-09-19T05:14:45;17.42;;;10.80;;
76310;SDS011;65120;59.304;18.294;2023-09-19T05:17:11;16.45;;;11.07;;
76310;SDS011;65120;59.304;18.294;2023-09-19T05:19:42;20.65;;;12.10;;
76310;SDS011;65120;59.304;18.294;2023-09-19T05:22:09;21.90;;;11.18;;
76310;SDS011;65120;59.304;18.294;2023-09-19T05:24:37;19.13;;;11.40;;
76310;SDS011;65120;59.304;18.294;2023-09-19T05:27:05;21.90;;;11.18;;
76310;SDS011;65120;59.304;18.294;2023-09-19T05:29:34;15.98;;;10.90;;
76310;SDS011;65120;59.304;18.294;2023-09-19T05:32:01;17.48;;;11.23;;
76310;SDS011;65120;59.304;18.294;2023-09-19T05:34:29;20.35;;;11.68;;
76310;SDS011;65120;59.304;18.294;2023-09-19T05:36:55;16.77;;;11.10;;
76310;SDS011;65120;59.304;18.294;2023-09-19T05:39:22;20.35;;;9.77;;
76310;SDS011;65120;59.304;18.294;2023-09-19T05:41:49;18.02;;;10.45;;
76310;SDS011;65120;59.304;18.294;2023-09-19T05:44:16;17.88;;;10.30;;
76310;SDS011;65120;59.304;18.294;2023-09-19T05:46:44;13.27;;;8.25;;
76310;SDS011;65120;59.304;18.294;2023-09-19T05:49:13;11.65;;;8.27;;
76310;SDS011;65120;59.304;18.294;2023-09-19T05:51:41;22.40;;;8.63;;
76310;SDS011;65120;59.304;18.294;2023-09-19T05:54:08;18.30;;;8.65;;
76310;SDS011;65120;59.304;18.294;2023-09-19T05:56:36;15.85;;;8.82;;
76310;SDS011;65120;59.304;18.294;2023-09-19T05:59:03;16.00;;;9.45;;
76310;SDS011;65120;59.304;18.294;2023-09-19T06:01:30;13.23;;;9.57;;
76310;SDS011;65120;59.304;18.294;2023-09-19T06:04:00;19.23;;;10.85;;
76310;SDS011;65120;59.304;18.294;2023-09-19T06:06:27;18.95;;;10.55;;
76310;SDS011;65120;59.304;18.294;2023-09-19T06:08:55;17.52;;;11.88;;
76310;SDS011;65120;59.304;18.294;2023-09-19T06:11:22;20.73;;;11.38;;
76310;SDS011;65120;59.304;18.294;2023-09-19T06:13:51;24.27;;;13.57;;
76310;SDS011;65120;59.304;18.294;2023-09-19T06:16:18;20.15;;;11.65;;
76310;SDS011;65120;59.304;18.294;2023-09-19T06:18:45;24.92;;;13.25;;
76310;SDS011;65120;59.304;18.294;2023-09-19T06:21:13;29.77;;;12.75;;
76310;SDS011;65120;59.304;18.294;2023-09-19T06:23:40;29.92;;;13.07;;
76310;SDS011;65120;59.304;18.294;2023-09-19T06:26:07;23.35;;;12.60;;
76310;SDS011;65120;59.304;18.294;2023-09-19T06:28:34;23.60;;;12.75;;
76310;SDS011;65120;59.304;18.294;2023-09-19T06:31:02;20.33;;;12.52;;
76310;SDS011;65120;59.304;18.294;2023-09-19T06:33:33;16.17;;;10.27;;
76310;SDS011;65120;59.304;18.294;2023-09-19T06:36:00;16.27;;;10.68;;
76310;SDS011;65120;59.304;18.294;2023-09-19T06:38:31;19.52;;;10.18;;
76310;SDS011;65120;59.304;18.294;2023-09-19T06:40:59;16.60;;;10.05;;
76310;SDS011;65120;59.304;18.294;2023-09-19T06:43:29;16.95;;;10.88;;
76310;SDS011;65120;59.304;18.294;2023-09-19T06:45:57;16.95;;;10.00;;
76310;SDS011;65120;59.304;18.294;2023-09-19T06:48:25;14.18;;;8.65;;
76310;SDS011;65120;59.304;18.294;2023-09-19T06:50:52;18.67;;;11.38;;
76310;SDS011;65120;59.304;18.294;2023-09-19T06:53:20;16.38;;;10.55;;
76310;SDS011;65120;59.304;18.294;2023-09-19T06:55:50;15.50;;;11.30;;
76310;SDS011;65120;59.304;18.294;2023-09-19T06:58:17;12.52;;;11.23;;
76310;SDS011;65120;59.304;18.294;2023-09-19T07:00:44;17.48;;;11.10;;
76310;SDS011;65120;59.304;18.294;2023-09-19T07:03:13;22.23;;;11.82;;
76310;SDS011;65120;59.304;18.294;2023-09-19T07:05:41;16.15;;;12.05;;
76310;SDS011;65120;59.304;18.294;2023-09-19T07:08:08;18.98;;;12.73;;
76310;SDS011;65120;59.304;18.294;2023-09-19T07:10:37;26.08;;;13.15;;
76310;SDS011;65120;59.304;18.294;2023-09-19T07:13:07;32.33;;;12.75;;
76310;SDS011;65120;59.304;18.294;2023-09-19T07:15:36;30.20;;;12.27;;
76310;SDS011;65120;59.304;18.294;2023-09-19T07:18:11;17.08;;;11.20;;
76310;SDS011;65120;59.304;18.294;2023-09-19T07:20:39;14.98;;;11.02;;
76310;SDS011;65120;59.304;18.294;2023-09-19T07:23:10;15.13;;;9.65;;
76310;SDS011;65120;59.304;18.294;2023-09-19T07:25:39;16.25;;;9.70;;
76310;SDS011;65120;59.304;18.294;2023-09-19T07:28:07;15.00;;;9.63;;
76310;SDS011;65120;59.304;18.294;2023-09-19T07:30:35;11.10;;;9.02;;
76310;SDS011;65120;59.304;18.294;2023-09-19T07:33:04;11.82;;;8.20;;
76310;SDS011;65120;59.304;18.294;2023-09-19T07:35:31;15.68;;;7.85;;
76310;SDS011;65120;59.304;18.294;2023-09-19T07:37:58;12.55;;;7.20;;
76310;SDS011;65120;59.304;18.294;2023-09-19T07:40:26;7.88;;;7.07;;
76310;SDS011;65120;59.304;18.294;2023-09-19T07:42:54;12.75;;;6.95;;
76310;SDS011;65120;59.304;18.294;2023-09-19T07:45:22;16.50;;;7.85;;
76310;SDS011;65120;59.304;18.294;2023-09-19T07:47:50;9.20;;;6.18;;
76310;SDS011;65120;59.304;18.294;2023-09-19T07:50:18;6.47;;;5.78;;
76310;SDS011;65120;59.304;18.294;2023-09-19T07:52:45;7.82;;;5.40;;
76310;SDS011;65120;59.304;18.294;2023-09-19T07:55:12;8.05;;;5.47;;
76310;SDS011;65120;59.304;18.294;2023-09-19T07:57:41;10.15;;;5.78;;
76310;SDS011;65120;59.304;18.294;2023-09-19T08:00:09;16.65;;;8.68;;
76310;SDS011;65120;59.304;18.294;2023-09-19T08:02:38;17.48;;;8.50;;
76310;SDS011;65120;59.304;18.294;2023-09-19T08:05:07;15.75;;;8.77;;
76310;SDS011;65120;59.304;18.294;2023-09-19T08:07:36;12.38;;;8.32;;
76310;SDS011;65120;59.304;18.294;2023-09-19T08:10:03;12.70;;;9.55;;
76310;SDS011;65120;59.304;18.294;2023-09-19T08:12:33;31.73;;;12.95;;
76310;SDS011;65120;59.304;18.294;2023-09-19T08:15:01;19.08;;;10.80;;
76310;SDS011;65120;59.304;18.294;2023-09-19T08:17:28;23.35;;;10.40;;
76310;SDS011;65120;59.304;18.294;2023-09-19T08:20:01;19.13;;;12.68;;
76310;SDS011;65120;59.304;18.294;2023-09-19T08:22:30;29.80;;;12.13;;
76310;SDS011;65120;59.304;18.294;2023-09-19T08:24:57;21.23;;;12.10;;
76310;SDS011;65120;59.304;18.294;2023-09-19T08:27:24;18.88;;;11.38;;
76310;SDS011;65120;59.304;18.294;2023-09-19T08:29:53;38.05;;;13.23;;
76310;SDS011;65120;59.304;18.294;2023-09-19T08:32:19;27.88;;;12.57;;
76310;SDS011;65120;59.304;18.294;2023-09-19T08:34:49;25.90;;;11.45;;
76310;SDS011;65120;59.304;18.294;2023-09-19T08:37:17;20.95;;;12.13;;
76310;SDS011;65120;59.304;18.294;2023-09-19T08:39:44;32.30;;;12.70;;
76310;SDS011;65120;59.304;18.294;2023-09-19T08:42:11;33.08;;;12.27;;
76310;SDS011;65120;59.304;18.294;2023-09-19T08:44:39;18.23;;;10.30;;
76310;SDS011;65120;59.304;18.294;2023-09-19T08:47:09;35.83;;;11.00;;
76310;SDS011;65120;59.304;18.294;2023-09-19T08:49:41;22.52;;;11.15;;
76310;SDS011;65120;59.304;18.294;2023-09-19T08:52:22;18.15;;;10.85;;
76310;SDS011;65120;59.304;18.294;2023-09-19T08:54:52;36.15;;;13.23;;
76310;SDS011;65120;59.304;18.294;2023-09-19T08:57:22;19.92;;;11.13;;
76310;SDS011;65120;59.304;18.294;2023-09-19T08:59:49;22.30;;;10.93;;
76310;SDS011;65120;59.304;18.294;2023-09-19T09:02:17;39.22;;;11.35;;
76310;SDS011;65120;59.304;18.294;2023-09-19T09:04:46;48.65;;;12.48;;
76310;SDS011;65120;59.304;18.294;2023-09-19T09:07:15;27.38;;;10.18;;
76310;SDS011;65120;59.304;18.294;2023-09-19T09:09:47;25.60;;;10.27;;
76310;SDS011;65120;59.304;18.294;2023-09-19T09:12:14;18.23;;;10.80;;
76310;SDS011;65120;59.304;18.294;2023-09-19T09:14:43;32.83;;;12.45;;
76310;SDS011;65120;59.304;18.294;2023-09-19T09:17:11;35.65;;;11.45;;
76310;SDS011;65120;59.304;18.294;2023-09-19T09:19:38;18.90;;;9.32;;
76310;SDS011;65120;59.304;18.294;2023-09-19T09:22:07;22.92;;;10.52;;
76310;SDS011;65120;59.304;18.294;2023-09-19T09:24:34;16.45;;;10.02;;
76310;SDS011;65120;59.304;18.294;2023-09-19T09:27:04;19.75;;;10.85;;
76310;SDS011;65120;59.304;18.294;2023-09-19T09:29:43;19.38;;;8.80;;
76310;SDS011;65120;59.304;18.294;2023-09-19T09:32:21;17.63;;;9.57;;
76310;SDS011;65120;59.304;18.294;2023-09-19T09:34:51;14.60;;;9.55;;
76310;SDS011;65120;59.304;18.294;2023-09-19T09:37:19;64.43;;;12.63;;
76310;SDS011;65120;59.304;18.294;2023-09-19T09:39:50;90.18;;;14.85;;
76310;SDS011;65120;59.304;18.294;2023-09-19T09:42:30;103.93;;;15.90;;
76310;SDS011;65120;59.304;18.294;2023-09-19T09:45:16;61.50;;;13.13;;
76310;SDS011;65120;59.304;18.294;2023-09-19T09:47:45;20.73;;;8.30;;
76310;SDS011;65120;59.304;18.294;2023-09-19T09:50:28;16.92;;;9.27;;
76310;SDS011;65120;59.304;18.294;2023-09-19T09:53:05;54.92;;;12.70;;
76310;SDS011;65120;59.304;18.294;2023-09-19T09:55:59;16.95;;;8.70;;
76310;SDS011;65120;59.304;18.294;2023-09-19T09:58:29;17.17;;;9.10;;
76310;SDS011;65120;59.304;18.294;2023-09-19T10:00:57;59.42;;;11.35;;
76310;SDS011;65120;59.304;18.294;2023-09-19T10:03:32;57.75;;;9.23;;
76310;SDS011;65120;59.304;18.294;2023-09-19T10:08:56;305.48;;;27.98;;
76310;SDS011;65120;59.304;18.294;2023-09-19T10:11:29;16.90;;;7.13;;
76310;SDS011;65120;59.304;18.294;2023-09-19T10:13:57;16.73;;;7.35;;
76310;SDS011;65120;59.304;18.294;2023-09-19T10:16:31;13.57;;;6.70;;
76310;SDS011;65120;59.304;18.294;2023-09-19T10:19:01;10.73;;;6.32;;
76310;SDS011;65120;59.304;18.294;2023-09-19T10:21:34;14.27;;;6.47;;
76310;SDS011;65120;59.304;18.294;2023-09-19T10:24:04;11.35;;;5.95;;
76310;SDS011;65120;59.304;18.294;2023-09-19T10:26:34;9.45;;;6.10;;
76310;SDS011;65120;59.304;18.294;2023-09-19T10:29:04;12.07;;;5.78;;
76310;SDS011;65120;59.304;18.294;2023-09-19T10:31:35;11.90;;;5.55;;
76310;SDS011;65120;59.304;18.294;2023-09-19T10:34:06;12.02;;;6.05;;
76310;SDS011;65120;59.304;18.294;2023-09-19T10:36:35;13.98;;;6.38;;
76310;SDS011;65120;59.304;18.294;2023-09-19T10:39:04;15.15;;;6.35;;
76310;SDS011;65120;59.304;18.294;2023-09-19T10:41:34;13.73;;;6.30;;
76310;SDS011;65120;59.304;18.294;2023-09-19T10:44:04;11.02;;;5.45;;
76310;SDS011;65120;59.304;18.294;2023-09-19T10:46:31;5.78;;;5.28;;
76310;SDS011;65120;59.304;18.294;2023-09-19T10:48:59;37.78;;;7.68;;
76310;SDS011;65120;59.304;18.294;2023-09-19T10:51:28;28.05;;;7.45;;
76310;SDS011;65120;59.304;18.294;2023-09-19T10:54:04;9.48;;;5.20;;
76310;SDS011;65120;59.304;18.294;2023-09-19T10:56:37;16.85;;;6.00;;
76310;SDS011;65120;59.304;18.294;2023-09-19T10:59:09;10.20;;;4.72;;
76310;SDS011;65120;59.304;18.294;2023-09-19T11:01:44;19.67;;;4.85;;
76310;SDS011;65120;59.304;18.294;2023-09-19T11:04:23;24.52;;;5.05;;
76310;SDS011;65120;59.304;18.294;2023-09-19T11:06:59;11.13;;;3.78;;
76310;SDS011;65120;59.304;18.294;2023-09-19T11:09:43;12.02;;;4.15;;
76310;SDS011;65120;59.304;18.294;2023-09-19T11:12:12;8.05;;;3.90;;
76310;SDS011;65120;59.304;18.294;2023-09-19T11:14:44;11.73;;;3.70;;
76310;SDS011;65120;59.304;18.294;2023-09-19T11:20:20;25.13;;;5.00;;
76310;SDS011;65120;59.304;18.294;2023-09-19T11:25:52;5.75;;;3.15;;
76310;SDS011;65120;59.304;18.294;2023-09-19T11:28:32;8.63;;;3.00;;
76310;SDS011;65120;59.304;18.294;2023-09-19T11:34:40;11.13;;;2.85;;
76310;SDS011;65120;59.304;18.294;2023-09-19T11:40:44;8.18;;;1.77;;
76310;SDS011;65120;59.304;18.294;2023-09-19T11:43:30;5.82;;;1.20;;
76310;SDS011;65120;59.304;18.294;2023-09-19T11:46:05;6.13;;;1.10;;
76310;SDS011;65120;59.304;18.294;2023-09-19T11:48:35;2.22;;;1.27;;
76310;SDS011;65120;59.304;18.294;2023-09-19T11:51:18;5.18;;;1.08;;
76310;SDS011;65120;59.304;18.294;2023-09-19T11:53:47;4.28;;;1.00;;
76310;SDS011;65120;59.304;18.294;2023-09-19T11:56:18;1.08;;;0.57;;
76310;SDS011;65120;59.304;18.294;2023-09-19T11:58:48;3.25;;;0.60;;
76310;SDS011;65120;59.304;18.294;2023-09-19T12:01:21;3.22;;;0.80;;
76310;SDS011;65120;59.304;18.294;2023-09-19T12:03:52;3.63;;;1.25;;
76310;SDS011;65120;59.304;18.294;2023-09-19T12:06:23;2.45;;;0.60;;
76310;SDS011;65120;59.304;18.294;2023-09-19T12:08:51;2.65;;;0.80;;
76310;SDS011;65120;59.304;18.294;2023-09-19T12:11:21;1.48;;;0.90;;
76310;SDS011;65120;59.304;18.294;2023-09-19T12:13:49;3.97;;;0.45;;
76310;SDS011;65120;59.304;18.294;2023-09-19T12:16:18;2.67;;;0.70;;
76310;SDS011;65120;59.304;18.294;2023-09-19T12:18:48;2.83;;;0.47;;
76310;SDS011;65120;59.304;18.294;2023-09-19T12:21:27;2.53;;;0.60;;
76310;SDS011;65120;59.304;18.294;2023-09-19T12:23:59;2.78;;;0.40;;
76310;SDS011;65120;59.304;18.294;2023-09-19T12:26:37;0.63;;;0.35;;
76310;SDS011;65120;59.304;18.294;2023-09-19T12:29:10;4.38;;;0.30;;
76310;SDS011;65120;59.304;18.294;2023-09-19T12:31:47;5.55;;;0.40;;
76310;SDS011;65120;59.304;18.294;2023-09-19T12:34:24;2.88;;;0.40;;
76310;SDS011;65120;59.304;18.294;2023-09-19T12:37:10;6.57;;;0.40;;
76310;SDS011;65120;59.304;18.294;2023-09-19T12:39:41;4.05;;;0.82;;
76310;SDS011;65120;59.304;18.294;2023-09-19T12:42:09;1.50;;;0.40;;
76310;SDS011;65120;59.304;18.294;2023-09-19T12:44:40;1.95;;;0.30;;
76310;SDS011;65120;59.304;18.294;2023-09-19T12:47:09;3.28;;;0.30;;
76310;SDS011;65120;59.304;18.294;2023-09-19T12:52:44;2.15;;;0.32;;
76310;SDS011;65120;59.304;18.294;2023-09-19T12:55:25;4.57;;;0.60;;
76310;SDS011;65120;59.304;18.294;2023-09-19T12:57:59;2.42;;;0.32;;
76310;SDS011;65120;59.304;18.294;2023-09-19T13:00:34;3.00;;;0.60;;
76310;SDS011;65120;59.304;18.294;2023-09-19T13:03:12;1.27;;;0.20;;
76310;SDS011;65120;59.304;18.294;2023-09-19T13:05:47;1.05;;;0.30;;
76310;SDS011;65120;59.304;18.294;2023-09-19T13:08:24;4.20;;;0.50;;
76310;SDS011;65120;59.304;18.294;2023-09-19T13:11:05;2.65;;;0.28;;
76310;SDS011;65120;59.304;18.294;2023-09-19T13:13:35;1.05;;;0.30;;
76310;SDS011;65120;59.304;18.294;2023-09-19T13:16:03;1.45;;;0.30;;
76310;SDS011;65120;59.304;18.294;2023-09-19T13:18:41;2.17;;;0.30;;
76310;SDS011;65120;59.304;18.294;2023-09-19T13:21:10;3.05;;;0.30;;
76310;SDS011;65120;59.304;18.294;2023-09-19T13:23:42;2.42;;;0.30;;
76310;SDS011;65120;59.304;18.294;2023-09-19T13:26:09;1.42;;;0.50;;
76310;SDS011;65120;59.304;18.294;2023-09-19T13:28:37;4.55;;;0.35;;
76310;SDS011;65120;59.304;18.294;2023-09-19T13:31:04;2.08;;;0.40;;
76310;SDS011;65120;59.304;18.294;2023-09-19T13:33:33;2.05;;;0.40;;
76310;SDS011;65120;59.304;18.294;2023-09-19T13:36:01;3.58;;;0.43;;
76310;SDS011;65120;59.304;18.294;2023-09-19T13:38:28;3.63;;;0.30;;
76310;SDS011;65120;59.304;18.294;2023-09-19T13:40:56;1.38;;;0.40;;
76310;SDS011;65120;59.304;18.294;2023-09-19T13:43:26;1.25;;;0.47;;
76310;SDS011;65120;59.304;18.294;2023-09-19T13:45:54;2.15;;;0.30;;
76310;SDS011;65120;59.304;18.294;2023-09-19T13:48:22;4.85;;;0.30;;
76310;SDS011;65120;59.304;18.294;2023-09-19T13:50:49;1.45;;;0.28;;
76310;SDS011;65120;59.304;18.294;2023-09-19T13:53:16;1.15;;;0.30;;
76310;SDS011;65120;59.304;18.294;2023-09-19T13:55:44;2.78;;;0.30;;
76310;SDS011;65120;59.304;18.294;2023-09-19T13:58:12;2.95;;;0.30;;
76310;SDS011;65120;59.304;18.294;2023-09-19T14:00:39;2.25;;;0.30;;
76310;SDS011;65120;59.304;18.294;2023-09-19T14:03:06;3.13;;;0.80;;
76310;SDS011;65120;59.304;18.294;2023-09-19T14:05:33;1.50;;;0.43;;
76310;SDS011;65120;59.304;18.294;2023-09-19T14:08:00;3.78;;;0.43;;
76310;SDS011;65120;59.304;18.294;2023-09-19T14:10:28;4.75;;;0.52;;
76310;SDS011;65120;59.304;18.294;2023-09-19T14:12:56;3.20;;;0.32;;
76310;SDS011;65120;59.304;18.294;2023-09-19T14:15:26;3.42;;;0.30;;
76310;SDS011;65120;59.304;18.294;2023-09-19T14:17:56;1.90;;;0.77;;
76310;SDS011;65120;59.304;18.294;2023-09-19T14:20:24;4.82;;;0.77;;
76310;SDS011;65120;59.304;18.294;2023-09-19T14:22:51;0.65;;;0.30;;
76310;SDS011;65120;59.304;18.294;2023-09-19T14:25:18;1.73;;;0.30;;
76310;SDS011;65120;59.304;18.294;2023-09-19T14:27:46;1.65;;;0.30;;
76310;SDS011;65120;59.304;18.294;2023-09-19T14:30:14;0.65;;;0.22;;
76310;SDS011;65120;59.304;18.294;2023-09-19T14:32:42;2.15;;;0.40;;
76310;SDS011;65120;59.304;18.294;2023-09-19T14:35:09;0.80;;;0.30;;
76310;SDS011;65120;59.304;18.294;2023-09-19T14:37:40;4.05;;;0.40;;
76310;SDS011;65120;59.304;18.294;2023-09-19T14:40:07;2.75;;;0.47;;
76310;SDS011;65120;59.304;18.294;2023-09-19T14:42:35;1.23;;;0.30;;
76310;SDS011;65120;59.304;18.294;2023-09-19T14:45:05;4.07;;;0.47;;
76310;SDS011;65120;59.304;18.294;2023-09-19T14:47:32;2.40;;;0.45;;
76310;SDS011;65120;59.304;18.294;2023-09-19T14:50:02;0.93;;;0.30;;
76310;SDS011;65120;59.304;18.294;2023-09-19T14:52:31;1.27;;;0.28;;
76310;SDS011;65120;59.304;18.294;2023-09-19T14:54:59;1.02;;;0.47;;
76310;SDS011;65120;59.304;18.294;2023-09-19T14:57:26;1.88;;;0.50;;